Time;durP1;ratioP1;P1;durP2;ratioP2;P2;SDS_P1;SDS_P2;PMS_P1;PMS_P2;Temp;Humidity;BMP_temperature;BMP_pressure;BME280_temperature;BME280_humidity;BME280_pressure;Samples;Min_cycle;Max_cycle;Signal;HPM_P1;HPM_P2
2022/02/24 00:00:56;;;;;;;18.80;17.30;;;8.70;99.90;;;;;;5018648;28;20465;-69
2022/02/24 00:03:24;;;;;;;18.63;17.10;;;8.70;99.90;;;;;;5034490;28;20463;-69
2022/02/24 00:05:50;;;;;;;18.53;16.83;;;8.70;99.90;;;;;;5032963;28;20467;-71
2022/02/24 00:08:17;;;;;;;19.73;17.43;;;8.70;99.90;;;;;;5037168;28;20474;-70
2022/02/24 00:10:44;;;;;;;19.77;16.87;;;8.70;99.90;;;;;;5041623;28;20468;-72
2022/02/24 00:13:11;;;;;;;18.57;17.27;;;8.70;99.90;;;;;;5034939;28;21330;-69
2022/02/24 00:15:39;;;;;;;18.70;17.20;;;8.70;99.90;;;;;;5029922;28;20467;-69
2022/02/24 00:18:06;;;;;;;19.90;17.30;;;8.70;99.90;;;;;;5034684;28;20831;-69
2022/02/24 00:20:33;;;;;;;18.80;17.30;;;8.70;99.90;;;;;;5027661;28;21247;-70
2022/02/24 00:23:02;;;;;;;19.37;17.50;;;8.70;99.90;;;;;;5035316;28;20570;-74
2022/02/24 00:25:30;;;;;;;18.40;16.93;;;8.70;99.90;;;;;;5038979;28;20479;-70
2022/02/24 00:27:57;;;;;;;20.13;18.27;;;8.70;99.90;;;;;;5035591;28;20475;-70
2022/02/24 00:30:24;;;;;;;19.83;17.30;;;8.70;99.90;;;;;;5045180;28;20499;-69
2022/02/24 00:32:52;;;;;;;19.37;17.80;;;8.70;99.90;;;;;;5044406;28;20573;-71
2022/02/24 00:35:19;;;;;;;18.13;16.93;;;8.70;99.90;;;;;;5042923;28;20467;-69
2022/02/24 00:37:46;;;;;;;22.40;18.20;;;8.70;99.90;;;;;;5035760;28;20553;-72
2022/02/24 00:40:13;;;;;;;18.70;17.20;;;8.80;99.90;;;;;;5038548;28;20466;-69
2022/02/24 00:42:40;;;;;;;18.87;17.03;;;8.80;99.90;;;;;;5044137;28;20464;-72
2022/02/24 00:45:08;;;;;;;20.13;18.23;;;8.80;99.90;;;;;;5042059;28;20502;-69
2022/02/24 00:47:35;;;;;;;17.47;16.47;;;8.80;99.90;;;;;;5043295;28;20962;-69
2022/02/24 00:50:03;;;;;;;18.27;16.77;;;8.80;99.90;;;;;;5043237;28;20514;-69
2022/02/24 00:52:30;;;;;;;17.80;16.60;;;8.70;99.90;;;;;;5041682;28;21159;-70
2022/02/24 00:54:57;;;;;;;17.87;16.23;;;8.70;99.90;;;;;;5036563;28;20947;-72
2022/02/24 00:57:24;;;;;;;18.87;17.17;;;8.70;99.90;;;;;;5037383;28;20468;-69
2022/02/24 00:59:52;;;;;;;20.70;16.90;;;8.80;99.90;;;;;;5042899;28;20452;-69
2022/02/24 01:02:18;;;;;;;18.77;17.47;;;8.80;99.90;;;;;;5039704;28;20972;-69
2022/02/24 01:04:45;;;;;;;17.53;16.07;;;8.80;99.90;;;;;;5036008;28;20478;-69
2022/02/24 01:07:13;;;;;;;16.90;15.70;;;8.80;99.90;;;;;;5044853;28;20463;-69
2022/02/24 01:09:40;;;;;;;19.20;17.70;;;8.70;99.90;;;;;;5040506;28;20491;-73
2022/02/24 01:12:08;;;;;;;18.07;16.50;;;8.70;99.90;;;;;;5038712;28;20463;-70
2022/02/24 01:14:36;;;;;;;18.17;16.43;;;8.80;99.90;;;;;;5042289;28;20470;-71
2022/02/24 01:17:03;;;;;;;19.37;17.40;;;8.80;99.90;;;;;;5033759;28;20833;-69
2022/02/24 01:19:30;;;;;;;17.90;16.40;;;8.80;99.90;;;;;;5040566;28;20468;-70
2022/02/24 01:21:57;;;;;;;17.27;16.17;;;8.70;99.90;;;;;;5041670;28;20498;-69
2022/02/24 01:24:26;;;;;;;18.00;16.60;;;8.70;99.90;;;;;;5040341;28;20464;-69
2022/02/24 01:26:53;;;;;;;17.63;16.33;;;8.70;99.90;;;;;;5039753;28;20465;-69
2022/02/24 01:29:20;;;;;;;17.87;16.53;;;8.80;99.90;;;;;;5041875;28;20494;-70
2022/02/24 01:31:47;;;;;;;18.67;16.90;;;8.80;99.90;;;;;;5037654;28;20990;-69
2022/02/24 01:34:13;;;;;;;18.50;17.00;;;8.70;99.90;;;;;;5041464;28;20498;-70
2022/02/24 01:36:40;;;;;;;19.53;17.90;;;8.70;99.90;;;;;;5036050;28;20555;-69
2022/02/24 01:39:07;;;;;;;24.17;21.57;;;8.70;99.90;;;;;;5038000;28;20472;-72
2022/02/24 01:41:37;;;;;;;23.70;18.60;;;8.70;99.90;;;;;;5042108;28;20499;-71
2022/02/24 01:44:12;;;;;;;19.83;17.90;;;8.70;99.90;;;;;;5039794;28;20468;-70
2022/02/24 01:46:39;;;;;;;19.57;17.70;;;8.70;99.90;;;;;;5042259;28;20463;-72
2022/02/24 01:49:07;;;;;;;18.87;17.37;;;8.60;99.90;;;;;;5042081;28;20515;-72
2022/02/24 01:51:35;;;;;;;18.77;17.20;;;8.60;99.90;;;;;;5044650;28;20471;-69
2022/02/24 01:54:02;;;;;;;18.17;16.90;;;8.60;99.90;;;;;;5039442;28;20460;-71
2022/02/24 01:56:29;;;;;;;18.43;16.93;;;8.60;99.90;;;;;;5034555;28;20543;-70
2022/02/24 01:58:57;;;;;;;19.03;17.63;;;8.70;99.90;;;;;;5039588;28;20473;-69
2022/02/24 02:01:24;;;;;;;18.70;16.93;;;8.60;99.90;;;;;;5041461;28;20471;-69
2022/02/24 02:03:54;;;;;;;19.17;17.37;;;8.60;99.90;;;;;;5043157;28;20817;-71
2022/02/24 02:06:21;;;;;;;18.13;16.70;;;8.70;99.90;;;;;;5038551;28;20500;-69
2022/02/24 02:08:48;;;;;;;17.63;16.33;;;8.70;99.90;;;;;;5037744;28;20474;-69
2022/02/24 02:11:16;;;;;;;17.60;16.07;;;8.70;99.90;;;;;;5037970;28;20990;-69
2022/02/24 02:13:43;;;;;;;17.60;16.33;;;8.70;99.90;;;;;;5040390;28;20499;-72
2022/02/24 02:16:12;;;;;;;17.03;16.03;;;8.60;99.90;;;;;;5038248;28;20459;-69
2022/02/24 02:18:39;;;;;;;18.30;16.67;;;8.70;99.90;;;;;;5041009;28;20555;-69
2022/02/24 02:21:08;;;;;;;18.20;16.60;;;8.70;99.90;;;;;;5044745;28;20479;-72
2022/02/24 02:23:34;;;;;;;20.17;17.80;;;8.70;99.90;;;;;;5039541;28;20470;-69
2022/02/24 02:26:01;;;;;;;18.87;16.97;;;8.70;99.90;;;;;;5036194;28;20828;-68
2022/02/24 02:28:29;;;;;;;19.27;17.87;;;8.70;99.90;;;;;;5042868;28;20832;-69
2022/02/24 02:30:56;;;;;;;18.47;16.80;;;8.70;99.90;;;;;;5041280;28;20496;-69
2022/02/24 02:33:23;;;;;;;18.20;16.70;;;8.70;99.90;;;;;;5029901;28;20462;-70
2022/02/24 02:35:50;;;;;;;18.53;17.23;;;8.70;99.90;;;;;;5044740;28;20559;-71
2022/02/24 02:38:19;;;;;;;18.93;17.10;;;8.70;99.90;;;;;;5039297;28;20836;-69
2022/02/24 02:40:46;;;;;;;19.67;17.57;;;8.70;99.90;;;;;;5043036;28;20498;-69
2022/02/24 02:43:13;;;;;;;18.30;16.80;;;8.70;99.90;;;;;;5042537;28;20463;-70
2022/02/24 02:45:40;;;;;;;17.87;16.60;;;8.70;99.90;;;;;;5043954;28;20538;-69
2022/02/24 02:48:07;;;;;;;17.40;16.13;;;8.70;99.90;;;;;;5044177;28;20486;-69
2022/02/24 02:50:34;;;;;;;18.37;16.73;;;8.70;99.90;;;;;;5039989;28;20495;-69
2022/02/24 02:53:02;;;;;;;18.90;17.20;;;8.70;99.90;;;;;;5035992;28;20485;-69
2022/02/24 02:55:30;;;;;;;17.30;16.00;;;8.70;99.90;;;;;;5031157;28;20550;-72
2022/02/24 02:57:57;;;;;;;17.93;16.73;;;8.70;99.90;;;;;;5042183;28;20464;-69
2022/02/24 03:00:24;;;;;;;18.77;16.97;;;8.70;99.90;;;;;;5036919;28;20470;-69
2022/02/24 03:02:51;;;;;;;17.13;16.00;;;8.70;99.90;;;;;;5046580;28;20538;-69
2022/02/24 03:05:17;;;;;;;18.17;16.63;;;8.80;99.90;;;;;;5041289;28;20459;-70
2022/02/24 03:07:44;;;;;;;19.07;17.53;;;8.80;99.90;;;;;;5039449;28;20471;-69
2022/02/24 03:10:11;;;;;;;18.07;16.40;;;8.70;99.90;;;;;;5038829;28;20496;-72
2022/02/24 03:12:40;;;;;;;22.07;16.80;;;8.70;99.90;;;;;;5042603;28;20467;-71
2022/02/24 03:15:10;;;;;;;18.40;16.83;;;8.70;99.90;;;;;;5042705;28;20547;-69
2022/02/24 03:17:37;;;;;;;18.00;16.43;;;8.70;99.90;;;;;;5039449;28;20571;-70
2022/02/24 03:20:06;;;;;;;17.40;16.20;;;8.70;99.90;;;;;;5038713;28;20516;-69
2022/02/24 03:22:33;;;;;;;18.30;16.73;;;8.70;99.90;;;;;;5038029;28;20472;-69
2022/02/24 03:25:00;;;;;;;18.10;16.53;;;8.70;99.90;;;;;;5038981;28;20476;-69
2022/02/24 03:27:26;;;;;;;17.63;16.33;;;8.70;99.90;;;;;;5040931;28;20474;-71
2022/02/24 03:29:55;;;;;;;17.50;16.20;;;8.70;99.90;;;;;;5045983;28;20494;-69
2022/02/24 03:32:22;;;;;;;17.93;16.33;;;8.70;99.90;;;;;;5039821;28;20480;-69
2022/02/24 03:34:50;;;;;;;17.43;15.93;;;8.70;99.90;;;;;;5039294;28;21334;-69
2022/02/24 03:37:16;;;;;;;17.70;16.30;;;8.70;99.90;;;;;;5043319;28;20465;-69
2022/02/24 03:39:44;;;;;;;18.47;16.70;;;8.70;99.90;;;;;;5033656;28;20463;-69
2022/02/24 03:42:11;;;;;;;17.60;16.50;;;8.70;99.90;;;;;;5039193;28;20938;-69
2022/02/24 03:44:38;;;;;;;17.57;16.37;;;8.70;99.90;;;;;;5044249;28;20480;-69
2022/02/24 03:47:07;;;;;;;17.77;16.47;;;8.70;99.90;;;;;;5040973;28;20472;-71
2022/02/24 03:49:33;;;;;;;17.77;16.47;;;8.70;99.90;;;;;;5036015;28;20488;-69
2022/02/24 03:52:01;;;;;;;17.67;16.27;;;8.70;99.90;;;;;;5038629;28;20471;-69
2022/02/24 03:54:30;;;;;;;17.70;16.50;;;8.70;99.90;;;;;;5042745;28;21226;-69
2022/02/24 03:56:56;;;;;;;18.10;16.50;;;8.70;99.90;;;;;;5038583;28;20494;-69
2022/02/24 03:59:24;;;;;;;19.10;16.60;;;8.70;99.90;;;;;;5034298;28;20825;-71
2022/02/24 04:01:50;;;;;;;17.17;15.97;;;8.70;99.90;;;;;;5042267;28;20464;-72
2022/02/24 04:04:19;;;;;;;17.80;16.40;;;8.70;99.90;;;;;;5037628;28;20471;-69
2022/02/24 04:06:46;;;;;;;17.47;16.10;;;8.70;99.90;;;;;;5042983;28;20994;-69
2022/02/24 04:09:13;;;;;;;17.97;16.30;;;8.70;99.90;;;;;;5041958;28;20474;-69
2022/02/24 04:11:39;;;;;;;25.30;15.77;;;8.70;99.90;;;;;;5035880;28;20494;-69
2022/02/24 04:14:07;;;;;;;17.50;16.03;;;8.60;99.90;;;;;;5042023;28;20854;-69
2022/02/24 04:16:33;;;;;;;17.40;15.90;;;8.60;99.90;;;;;;5039506;28;20808;-69
2022/02/24 04:19:00;;;;;;;17.70;16.20;;;8.60;99.90;;;;;;5042366;28;20459;-70
2022/02/24 04:21:28;;;;;;;17.43;15.90;;;8.60;99.90;;;;;;5044559;28;20490;-69
2022/02/24 04:23:55;;;;;;;18.33;16.70;;;8.60;99.90;;;;;;5040289;28;20550;-69
2022/02/24 04:26:22;;;;;;;17.73;16.30;;;8.60;99.90;;;;;;5040655;28;20997;-72
2022/02/24 04:28:50;;;;;;;17.60;16.30;;;8.70;99.90;;;;;;5037879;28;20464;-69
2022/02/24 04:31:17;;;;;;;17.30;16.30;;;8.60;99.90;;;;;;5040980;28;20502;-69
2022/02/24 04:33:44;;;;;;;18.07;16.47;;;8.60;99.90;;;;;;5037450;28;20947;-72
2022/02/24 04:36:11;;;;;;;18.67;16.30;;;8.60;99.90;;;;;;5038029;28;20474;-72
2022/02/24 04:38:39;;;;;;;19.40;17.73;;;8.60;99.90;;;;;;5033739;28;20465;-69
2022/02/24 04:41:07;;;;;;;19.90;16.80;;;8.60;99.90;;;;;;5038220;28;21027;-71
2022/02/24 04:43:35;;;;;;;17.83;16.40;;;8.60;99.90;;;;;;5037645;28;21107;-69
2022/02/24 04:46:02;;;;;;;18.07;16.30;;;8.60;99.90;;;;;;5039825;28;20464;-70
2022/02/24 04:48:30;;;;;;;17.77;16.40;;;8.70;99.90;;;;;;5037658;28;20488;-71
2022/02/24 04:50:57;;;;;;;17.93;16.30;;;8.70;99.90;;;;;;5035958;28;20496;-69
2022/02/24 04:53:24;;;;;;;18.03;16.73;;;8.70;99.90;;;;;;5040872;28;20557;-69
2022/02/24 04:55:53;;;;;;;17.80;16.43;;;8.70;99.90;;;;;;5038869;28;20463;-69
2022/02/24 04:58:20;;;;;;;18.73;16.90;;;8.70;99.90;;;;;;5037732;28;20534;-72
2022/02/24 05:00:48;;;;;;;17.33;16.30;;;8.60;99.90;;;;;;5040437;28;20462;-69
2022/02/24 05:03:15;;;;;;;18.13;16.90;;;8.70;99.90;;;;;;5014178;28;20608;-69
2022/02/24 05:05:42;;;;;;;17.73;16.33;;;8.70;99.90;;;;;;5007504;28;20892;-70
2022/02/24 05:08:09;;;;;;;18.90;17.10;;;8.70;99.90;;;;;;5008009;28;20654;-70
2022/02/24 05:10:36;;;;;;;19.30;17.50;;;8.70;99.90;;;;;;5011199;28;20487;-71
2022/02/24 05:13:04;;;;;;;17.57;16.57;;;8.60;99.90;;;;;;5012805;28;20558;-69
2022/02/24 05:15:31;;;;;;;18.10;16.43;;;8.60;99.90;;;;;;5013195;28;20940;-70
2022/02/24 05:17:58;;;;;;;16.60;15.70;;;8.60;99.90;;;;;;5012921;28;20597;-71
2022/02/24 05:20:25;;;;;;;18.37;16.97;;;8.60;99.90;;;;;;5012683;28;21018;-72
2022/02/24 05:22:52;;;;;;;18.23;16.50;;;8.60;99.90;;;;;;5015660;28;20537;-71
2022/02/24 05:25:19;;;;;;;17.33;16.03;;;8.60;99.90;;;;;;5014420;28;20859;-71
2022/02/24 05:27:46;;;;;;;17.67;16.00;;;8.50;99.90;;;;;;5013156;28;20464;-72
2022/02/24 05:30:16;;;;;;;17.47;16.37;;;8.50;99.90;;;;;;5014741;28;21783;-70
2022/02/24 05:32:43;;;;;;;17.73;16.50;;;8.50;99.90;;;;;;5015536;28;21098;-70
2022/02/24 05:35:11;;;;;;;17.60;16.30;;;8.50;99.90;;;;;;5014145;28;20895;-70
2022/02/24 05:37:38;;;;;;;18.23;16.57;;;8.50;99.90;;;;;;5012630;28;20550;-69
2022/02/24 05:40:06;;;;;;;18.27;16.50;;;8.40;99.90;;;;;;5014210;28;20689;-72
2022/02/24 05:42:33;;;;;;;16.90;15.80;;;8.30;99.90;;;;;;5014733;28;20478;-71
2022/02/24 05:45:00;;;;;;;17.73;16.40;;;8.30;99.90;;;;;;5012975;28;20532;-69
2022/02/24 05:47:28;;;;;;;18.17;16.60;;;8.30;99.90;;;;;;5013539;28;20495;-72
2022/02/24 05:49:55;;;;;;;17.90;16.23;;;8.30;99.90;;;;;;5012764;28;20465;-72
2022/02/24 05:52:22;;;;;;;18.27;16.73;;;8.20;99.90;;;;;;5012945;28;20467;-69
2022/02/24 05:54:49;;;;;;;18.10;16.70;;;8.20;99.90;;;;;;5012719;28;20553;-71
2022/02/24 05:57:16;;;;;;;18.83;17.53;;;8.20;99.90;;;;;;5013020;28;20456;-69
2022/02/24 05:59:43;;;;;;;18.33;16.73;;;8.30;99.90;;;;;;5012327;28;20582;-72
2022/02/24 06:02:10;;;;;;;17.50;16.40;;;8.20;99.90;;;;;;5012529;28;20458;-70
2022/02/24 06:04:38;;;;;;;17.63;16.17;;;8.30;99.90;;;;;;5012692;28;20475;-69
2022/02/24 06:07:05;;;;;;;17.43;16.10;;;8.30;99.90;;;;;;5013419;28;21051;-70
2022/02/24 06:09:32;;;;;;;18.27;16.90;;;8.30;99.90;;;;;;5013146;28;20468;-69
2022/02/24 06:11:58;;;;;;;18.00;16.90;;;8.30;99.90;;;;;;5012491;28;20488;-70
2022/02/24 06:14:25;;;;;;;18.07;16.73;;;8.30;99.90;;;;;;5011587;28;20482;-69
2022/02/24 06:16:52;;;;;;;17.57;16.37;;;8.10;99.90;;;;;;5012311;28;20494;-71
2022/02/24 06:19:19;;;;;;;18.10;16.67;;;8.20;99.90;;;;;;5020604;28;20491;-72
2022/02/24 06:21:48;;;;;;;18.40;16.87;;;8.20;99.90;;;;;;5013770;28;20480;-69
2022/02/24 06:24:15;;;;;;;18.30;16.70;;;8.20;99.90;;;;;;5012619;28;21521;-71
2022/02/24 06:26:41;;;;;;;18.00;16.90;;;8.20;99.90;;;;;;5012145;28;20467;-71
2022/02/24 06:29:08;;;;;;;20.60;18.50;;;8.20;99.90;;;;;;5012745;28;21420;-70
2022/02/24 06:31:37;;;;;;;18.37;16.90;;;8.20;99.90;;;;;;5012069;28;20502;-69
2022/02/24 06:34:04;;;;;;;18.00;16.60;;;8.20;99.90;;;;;;5011763;28;20472;-69
2022/02/24 06:36:31;;;;;;;17.73;16.40;;;8.10;99.90;;;;;;5011840;28;20464;-69
2022/02/24 06:38:59;;;;;;;17.67;16.40;;;8.10;99.90;;;;;;5011792;28;20467;-71
2022/02/24 06:41:26;;;;;;;18.57;17.07;;;8.10;99.90;;;;;;5011008;28;20829;-69
2022/02/24 06:43:54;;;;;;;18.70;17.20;;;8.10;99.90;;;;;;5009936;28;20468;-69
2022/02/24 06:46:20;;;;;;;18.30;17.00;;;8.00;99.90;;;;;;5011939;28;20471;-69
2022/02/24 06:48:48;;;;;;;17.70;16.40;;;7.90;99.90;;;;;;5012588;28;21048;-72
2022/02/24 06:51:15;;;;;;;17.57;16.17;;;7.90;99.90;;;;;;5008378;28;20508;-70
2022/02/24 06:53:42;;;;;;;18.90;17.40;;;7.90;99.90;;;;;;5009947;28;20476;-68
2022/02/24 06:56:10;;;;;;;18.27;17.07;;;7.90;99.90;;;;;;5009559;28;20471;-70
2022/02/24 06:58:37;;;;;;;18.87;17.47;;;7.90;99.90;;;;;;5009988;28;21052;-70
2022/02/24 07:01:04;;;;;;;19.30;17.30;;;8.00;99.90;;;;;;5009831;28;20482;-70
2022/02/24 07:03:31;;;;;;;18.67;17.37;;;7.90;99.90;;;;;;5010252;28;20473;-70
2022/02/24 07:05:57;;;;;;;18.43;16.90;;;7.90;99.90;;;;;;5010417;28;20473;-70
2022/02/24 07:08:24;;;;;;;19.33;17.70;;;7.90;99.90;;;;;;5008161;28;20483;-69
2022/02/24 07:10:51;;;;;;;18.77;16.87;;;7.90;99.90;;;;;;5010224;28;21177;-71
2022/02/24 07:13:19;;;;;;;21.03;17.90;;;7.90;99.90;;;;;;5010095;28;20839;-70
2022/02/24 07:15:46;;;;;;;18.60;16.97;;;8.00;99.90;;;;;;5007979;28;21222;-72
2022/02/24 07:18:13;;;;;;;17.90;16.57;;;8.00;99.90;;;;;;5009183;28;20949;-70
2022/02/24 07:20:39;;;;;;;17.67;16.17;;;8.00;99.90;;;;;;5008352;28;20499;-69
2022/02/24 07:23:06;;;;;;;18.07;16.60;;;8.00;99.90;;;;;;5009964;28;21260;-74
2022/02/24 07:25:33;;;;;;;18.00;16.37;;;8.00;99.90;;;;;;5009175;28;21542;-70
2022/02/24 07:28:00;;;;;;;18.70;17.20;;;8.10;99.90;;;;;;5009356;28;20489;-70
2022/02/24 07:30:28;;;;;;;18.47;16.67;;;8.20;99.90;;;;;;5007477;28;21075;-69
2022/02/24 07:32:54;;;;;;;17.93;16.20;;;8.20;99.90;;;;;;5009111;28;20470;-69
2022/02/24 07:35:21;;;;;;;18.13;16.83;;;8.30;99.90;;;;;;5011618;28;20482;-73
2022/02/24 07:37:48;;;;;;;19.33;17.53;;;8.30;99.90;;;;;;5005468;28;20971;-70
2022/02/24 07:40:15;;;;;;;22.90;20.50;;;8.40;99.90;;;;;;5008299;28;20456;-71
2022/02/24 07:42:41;;;;;;;23.00;20.70;;;8.40;99.90;;;;;;5007750;28;21008;-71
2022/02/24 07:45:09;;;;;;;21.77;19.40;;;8.50;99.90;;;;;;5005168;28;20914;-69
2022/02/24 07:47:37;;;;;;;21.60;19.43;;;8.60;99.90;;;;;;5009833;28;20876;-71
2022/02/24 07:50:05;;;;;;;20.00;18.40;;;8.60;99.90;;;;;;5011284;28;20459;-69
2022/02/24 07:52:31;;;;;;;25.93;22.03;;;8.70;99.90;;;;;;5034476;28;20553;-72
2022/02/24 07:54:58;;;;;;;22.30;19.90;;;8.70;99.90;;;;;;5031486;28;20467;-69
2022/02/24 07:57:25;;;;;;;21.70;19.90;;;8.80;99.90;;;;;;5005610;28;20821;-72
2022/02/24 07:59:52;;;;;;;21.53;19.90;;;8.80;99.90;;;;;;5004250;28;20464;-71
2022/02/24 08:02:18;;;;;;;23.10;20.70;;;8.90;99.90;;;;;;5004900;28;20804;-70
2022/02/24 08:04:46;;;;;;;22.93;20.47;;;9.00;99.90;;;;;;5002854;28;20479;-70
2022/02/24 08:07:13;;;;;;;22.43;20.23;;;9.10;99.90;;;;;;5004442;28;20571;-70
2022/02/24 08:09:40;;;;;;;24.57;22.10;;;9.10;99.90;;;;;;5007170;28;20480;-71
2022/02/24 08:14:52;;;;;;;24.07;21.67;;;9.10;99.90;;;;;;4999485;28;20528;-70
2022/02/24 08:17:20;;;;;;;21.00;19.10;;;9.20;99.90;;;;;;5001137;28;20565;-70
2022/02/24 08:19:49;;;;;;;23.20;21.20;;;9.20;99.90;;;;;;4999340;28;20468;-70
2022/02/24 08:22:16;;;;;;;31.27;25.27;;;9.10;99.90;;;;;;5000802;28;20464;-70
2022/02/24 08:24:43;;;;;;;24.40;22.17;;;9.10;99.90;;;;;;5000940;28;20464;-70
2022/02/24 08:27:10;;;;;;;21.00;19.00;;;9.10;99.90;;;;;;5001165;28;20474;-71
2022/02/24 08:29:37;;;;;;;18.63;16.77;;;9.20;99.90;;;;;;5000438;28;20466;-71
2022/02/24 08:32:04;;;;;;;20.83;18.87;;;9.20;99.90;;;;;;5000658;28;20516;-70
2022/02/24 08:34:31;;;;;;;21.10;19.60;;;9.20;99.90;;;;;;5000445;28;20483;-69
2022/02/24 08:36:59;;;;;;;22.70;20.80;;;9.10;99.90;;;;;;5000074;28;20497;-70
2022/02/24 08:39:26;;;;;;;22.57;20.07;;;9.10;99.90;;;;;;5000707;28;20479;-72
2022/02/24 08:41:53;;;;;;;22.23;19.97;;;9.10;99.90;;;;;;5001523;28;20823;-70
2022/02/24 08:44:20;;;;;;;20.63;18.83;;;9.10;99.90;;;;;;5001718;28;20555;-69
2022/02/24 08:46:47;;;;;;;21.60;19.60;;;9.00;99.90;;;;;;5004398;28;20488;-70
2022/02/24 08:49:14;;;;;;;21.70;19.90;;;9.00;99.90;;;;;;5003235;28;20488;-70
2022/02/24 08:51:42;;;;;;;20.83;19.10;;;9.00;99.90;;;;;;5004359;28;20495;-71
2022/02/24 08:54:10;;;;;;;20.63;18.73;;;9.10;99.90;;;;;;5003670;28;20828;-70
2022/02/24 08:56:37;;;;;;;20.07;18.07;;;9.10;99.90;;;;;;5004962;28;21012;-69
2022/02/24 08:59:03;;;;;;;19.17;17.27;;;9.20;99.90;;;;;;5003977;28;22510;-70
2022/02/24 09:01:31;;;;;;;18.93;17.23;;;9.30;99.90;;;;;;5004049;28;20460;-70
2022/02/24 09:03:58;;;;;;;19.17;17.57;;;9.20;99.90;;;;;;5004326;28;20476;-70
2022/02/24 09:06:25;;;;;;;19.20;17.77;;;9.30;99.90;;;;;;5002563;28;21019;-70
2022/02/24 09:08:52;;;;;;;18.60;17.20;;;9.30;99.90;;;;;;5002965;28;20488;-70
2022/02/24 09:11:21;;;;;;;23.37;20.30;;;9.20;99.90;;;;;;5002939;28;20487;-69
2022/02/24 09:13:48;;;;;;;20.60;18.67;;;9.20;99.90;;;;;;5004095;28;21260;-72
2022/02/24 09:16:15;;;;;;;21.20;18.00;;;9.20;99.90;;;;;;5003527;28;20467;-70
2022/02/24 09:18:42;;;;;;;19.17;17.47;;;9.30;99.90;;;;;;5003599;28;20465;-72
2022/02/24 09:21:08;;;;;;;18.90;17.33;;;9.40;99.90;;;;;;5002839;28;20474;-69
2022/02/24 09:23:35;;;;;;;28.90;18.77;;;9.50;99.90;;;;;;5003254;28;20521;-71
2022/02/24 09:26:02;;;;;;;20.07;18.33;;;9.60;99.90;;;;;;5002611;28;20983;-70
2022/02/24 09:28:30;;;;;;;20.13;17.20;;;9.70;99.90;;;;;;5002480;28;20468;-70
2022/02/24 09:30:57;;;;;;;18.47;16.97;;;9.80;99.90;;;;;;5003704;28;20585;-71
2022/02/24 09:33:26;;;;;;;18.83;17.33;;;9.90;99.90;;;;;;5002218;28;21001;-70
2022/02/24 09:35:53;;;;;;;18.37;17.00;;;10.00;99.90;;;;;;5003354;28;20532;-70
2022/02/24 09:38:20;;;;;;;17.70;16.40;;;10.00;99.90;;;;;;5000645;28;20471;-70
2022/02/24 09:40:51;;;;;;;18.90;17.50;;;10.10;99.90;;;;;;5003738;28;20463;-70
2022/02/24 09:43:19;;;;;;;18.73;17.13;;;10.30;99.90;;;;;;5004173;28;20467;-72
2022/02/24 09:45:48;;;;;;;19.90;18.30;;;10.40;99.90;;;;;;5003664;28;20840;-70
2022/02/24 09:48:17;;;;;;;18.83;17.23;;;10.50;99.90;;;;;;5003716;28;20495;-70
2022/02/24 09:50:49;;;;;;;19.17;17.63;;;10.50;99.90;;;;;;5003915;28;20471;-72
2022/02/24 09:53:16;;;;;;;20.23;18.40;;;10.70;99.90;;;;;;5002454;28;21007;-70
2022/02/24 09:55:43;;;;;;;19.87;18.10;;;10.80;99.90;;;;;;5003151;28;20476;-70
2022/02/24 09:58:10;;;;;;;18.93;17.47;;;10.90;99.90;;;;;;5001707;28;20461;-70
2022/02/24 10:00:38;;;;;;;19.53;17.70;;;11.10;99.90;;;;;;5000901;28;21153;-72
2022/02/24 10:03:24;;;;;;;19.87;18.03;;;11.20;99.90;;;;;;5002308;28;22529;-70
2022/02/24 10:05:51;;;;;;;20.60;18.70;;;11.30;99.90;;;;;;5000689;28;20983;-70
2022/02/24 10:08:18;;;;;;;20.73;18.80;;;11.20;99.90;;;;;;5002656;28;21083;-69
2022/02/24 10:10:45;;;;;;;19.20;17.70;;;11.10;99.90;;;;;;5003096;28;20730;-69
2022/02/24 10:13:13;;;;;;;19.60;18.10;;;11.30;99.90;;;;;;5001115;28;20489;-70
2022/02/24 10:15:42;;;;;;;20.77;18.70;;;11.50;99.90;;;;;;5003083;28;20486;-70
2022/02/24 10:18:12;;;;;;;20.13;18.13;;;11.80;99.90;;;;;;5001040;28;20460;-69
2022/02/24 10:20:40;;;;;;;19.20;17.47;;;12.00;99.90;;;;;;5002885;28;20481;-69
2022/02/24 10:23:09;;;;;;;19.90;18.20;;;12.10;99.90;;;;;;5001939;28;20465;-70
2022/02/24 10:25:44;;;;;;;21.27;18.87;;;12.20;99.90;;;;;;5002121;28;20472;-71
2022/02/24 10:28:29;;;;;;;20.67;18.47;;;12.30;99.90;;;;;;5001972;28;20462;-69
2022/02/24 10:30:57;;;;;;;20.10;18.27;;;12.30;99.90;;;;;;5003222;28;20840;-70
2022/02/24 10:33:30;;;;;;;19.87;18.17;;;12.20;99.90;;;;;;5002470;28;20489;-72
2022/02/24 10:36:10;;;;;;;20.50;18.90;;;12.20;99.90;;;;;;5010766;28;20499;-69
2022/02/24 10:38:37;;;;;;;19.73;18.03;;;11.80;99.90;;;;;;5026887;28;20515;-72
2022/02/24 10:41:04;;;;;;;20.53;18.67;;;11.70;99.90;;;;;;5002054;28;20460;-70
2022/02/24 10:43:32;;;;;;;20.10;18.40;;;11.70;99.90;;;;;;5002109;28;20464;-69
2022/02/24 10:46:02;;;;;;;19.80;18.00;;;11.80;99.90;;;;;;5002299;28;21238;-69
2022/02/24 10:48:31;;;;;;;19.77;18.23;;;11.90;99.90;;;;;;5002213;28;20646;-69
2022/02/24 10:51:01;;;;;;;20.20;18.50;;;12.30;99.90;;;;;;5002196;28;20666;-70
2022/02/24 10:53:30;;;;;;;19.40;18.10;;;12.50;99.90;;;;;;5001943;28;20496;-69
2022/02/24 10:56:02;;;;;;;20.43;18.73;;;12.40;99.90;;;;;;5002193;28;22485;-71
2022/02/24 10:58:31;;;;;;;19.23;17.47;;;12.30;99.90;;;;;;5000731;28;21033;-70
2022/02/24 11:01:08;;;;;;;20.13;18.50;;;12.00;99.90;;;;;;5002475;28;20477;-69
2022/02/24 11:03:37;;;;;;;18.87;17.33;;;11.60;99.90;;;;;;5000203;28;21387;-70
2022/02/24 11:06:06;;;;;;;19.80;18.30;;;11.40;99.90;;;;;;4999761;28;20461;-72
2022/02/24 11:08:34;;;;;;;18.63;17.27;;;11.30;99.90;;;;;;5005689;28;20953;-70
2022/02/24 11:11:02;;;;;;;18.13;16.80;;;11.50;99.90;;;;;;5005929;28;21102;-69
2022/02/24 11:13:30;;;;;;;18.97;17.33;;;11.40;99.90;;;;;;5005665;28;20492;-70
2022/02/24 11:15:58;;;;;;;18.60;17.03;;;11.20;99.90;;;;;;5006313;28;20464;-69
2022/02/24 11:18:26;;;;;;;18.70;17.30;;;11.30;99.90;;;;;;5005325;28;21066;-71
2022/02/24 11:20:55;;;;;;;18.37;16.87;;;11.30;99.90;;;;;;5005394;28;21252;-70
2022/02/24 11:23:23;;;;;;;18.60;17.10;;;11.40;99.90;;;;;;5005611;28;20482;-69
2022/02/24 11:25:55;;;;;;;17.87;16.87;;;11.50;99.90;;;;;;5005930;28;20515;-71
2022/02/24 11:28:24;;;;;;;19.00;17.40;;;11.40;99.90;;;;;;5004903;28;20459;-69
2022/02/24 11:30:57;;;;;;;19.00;17.50;;;11.50;99.90;;;;;;5007137;28;20829;-69
2022/02/24 11:33:24;;;;;;;18.90;17.40;;;11.60;99.90;;;;;;5006985;28;20869;-69
2022/02/24 11:36:08;;;;;;;18.47;16.60;;;11.50;99.90;;;;;;5005764;28;20467;-70
2022/02/24 11:38:35;;;;;;;17.30;16.30;;;11.60;99.90;;;;;;5005715;28;20469;-69
2022/02/24 11:41:06;;;;;;;18.10;16.97;;;11.70;99.90;;;;;;5004888;28;22546;-69
2022/02/24 11:43:34;;;;;;;18.30;17.10;;;11.90;99.90;;;;;;5005887;28;20477;-72
2022/02/24 11:46:05;;;;;;;17.47;16.07;;;12.00;99.90;;;;;;5005160;28;20478;-72
2022/02/24 11:48:36;;;;;;;18.70;17.30;;;12.60;99.90;;;;;;5003059;28;20513;-70
2022/02/24 11:51:04;;;;;;;17.50;16.40;;;13.10;99.90;;;;;;5005442;28;20468;-69
2022/02/24 11:53:36;;;;;;;17.40;16.30;;;13.10;99.90;;;;;;5003672;28;20580;-70
2022/02/24 11:56:04;;;;;;;18.20;17.00;;;13.60;99.90;;;;;;5002256;28;20465;-70
2022/02/24 11:58:47;;;;;;;18.07;16.97;;;13.50;99.90;;;;;;5003497;28;20527;-71
2022/02/24 12:01:35;;;;;;;18.40;17.20;;;13.70;99.90;;;;;;5003939;28;20998;-69
2022/02/24 12:04:15;;;;;;;18.20;17.00;;;13.40;99.90;;;;;;5005267;28;20974;-69
2022/02/24 12:06:48;;;;;;;18.13;17.03;;;13.00;99.90;;;;;;5001455;28;20464;-71
2022/02/24 12:09:39;;;;;;;18.47;17.07;;;12.50;99.90;;;;;;5008307;28;20546;-69
2022/02/24 12:12:13;;;;;;;18.83;17.30;;;12.30;99.90;;;;;;4991780;28;20465;-69
2022/02/24 12:14:54;;;;;;;18.43;16.77;;;12.10;99.90;;;;;;5001820;28;22370;-71
2022/02/24 12:17:26;;;;;;;18.07;16.77;;;12.00;99.90;;;;;;5001349;28;21001;-69
2022/02/24 12:19:56;;;;;;;18.47;16.97;;;11.90;99.90;;;;;;4999930;28;21118;-70
2022/02/24 12:22:38;;;;;;;18.17;16.70;;;11.60;99.90;;;;;;5001154;28;20918;-72
2022/02/24 12:25:13;;;;;;;17.67;16.63;;;11.50;99.90;;;;;;5000230;28;20696;-70
2022/02/24 12:27:42;;;;;;;18.07;16.93;;;11.60;99.90;;;;;;5001318;28;20463;-70
2022/02/24 12:30:31;;;;;;;17.43;16.53;;;11.50;99.90;;;;;;5001732;28;20473;-71
2022/02/24 12:33:02;;;;;;;18.20;16.93;;;11.80;99.90;;;;;;4999642;28;20586;-70
2022/02/24 12:35:32;;;;;;;19.43;17.83;;;12.40;99.90;;;;;;5001327;28;20518;-70
2022/02/24 12:38:00;;;;;;;17.77;16.60;;;12.70;99.90;;;;;;5002220;28;20468;-71
2022/02/24 12:40:31;;;;;;;18.17;17.00;;;12.90;99.90;;;;;;5001048;28;20849;-71